Абан

Карта отелей и гостиниц, располагающихся рядом с аэропортом Абан :

Абан Красноярский край 56° 41' 5.46" N, 96° 7' 10.8012" E
Абан Красноярский край 56° 41' 5.46" N, 96° 7' 10.8012" E
Код аэродрома ИКАО
UNQA
Код аэродрома RU
УНЯА
Координаты
N56.68485° E096.11967°
Превышение над уровнем моря
256
Основная полоса
09/27
Курс магнитный
084,8/264,8
Длина основной ВПП
1300
Ширина основной ВПП
25
Покрытие основной ВПП
Твёрдое
Освещение ВПП
Нет
Тип: 
Аэродром
Класс аэродрома: 
Принадлежность: 
ГА
Статус: 
Недействующий
Сайт: 
E-mail аэродрома: 
Страна: 
Россия
Регион: 
Красноярский край
Город: 
Дополнительная информация: 
Бывший аэропорт МВЛ-2.

Найти трансфер

С помощью этой формы Вы можете найти трансфер из аэропорта Абан в город, аэропорт или вокзал:

Карта места

Javascript is required to view this map.

Погода в аэропортах:

Авиационная погода в Павлодаре

Регион: 
Погода METAR: 
UASP 281300Z 09005MPS 9999 -RA OVC049 07/03 Q1012 NOSIG RMK QFE749/0999
Время наблюдения
2021-09-28T13:00:00Z
Температура C
7.0
Точка росы
3.0
Направление ветра
90
Скорость ветра (узлы)
10
Метео видимость
6.21
Явления погоды
-RA
Условия полета
VFR
Аэропорт подробнее: 

Авиационная погода в Костанае

Регион: 
Погода METAR: 
UAUU 281200Z 04009G15MPS 9999 -RA BKN011 OVC033 04/03 Q1011 R33/290160 NOSIG RMK QFE742/0990
Время наблюдения
2021-09-28T12:00:00Z
Температура C
4.0
Точка росы
3.0
Направление ветра
40
Скорость ветра (узлы)
17
Метео видимость
6.21
Явления погоды
-RA
Условия полета
MVFR
Аэропорт подробнее: 

Авиационная погода в Магнитогорске

Погода METAR: 
USCM 281200Z 03010MPS 4500 -SHRA BR OVC010CB 02/02 Q1016 R36/290055 TEMPO 02015MPS 1200 SHSNRA BR VV004 RMK QFE724
Время наблюдения
2021-09-28T12:00:00Z
Температура C
2.0
Точка росы
2.0
Направление ветра
30
Скорость ветра (узлы)
19
Метео видимость
2.8
Явления погоды
-SHRA BR
Условия полета
IFR
Аэропорт подробнее: 

Авиационная погода в Караганде

Регион: 
Погода METAR: 
UAKK 281300Z 24005MPS 8000 -RA OVC030 08/07 Q1010 R23/2///60 NOSIG RMK QFE711/0948
Время наблюдения
2021-09-28T13:00:00Z
Температура C
8.0
Точка росы
7.0
Направление ветра
240
Скорость ветра (узлы)
10
Метео видимость
4.97
Явления погоды
-RA
Условия полета
MVFR
Аэропорт подробнее: